Time;durP1;ratioP1;P1;durP2;ratioP2;P2;SDS_P1;SDS_P2;PMS_P1;PMS_P2;Temp;Humidity;BMP_temperature;BMP_pressure;BME280_temperature;BME280_humidity;BME280_pressure;Samples;Min_cycle;Max_cycle;Signal;HPM_P1;HPM_P2
2023/06/25 00:01:30;;;;;;;8.60;7.70;;;18.50;99.90;;;;;;4992732;28;20879;-69
2023/06/25 00:03:55;;;;;;;8.03;7.23;;;18.40;99.90;;;;;;4989103;28;20191;-68
2023/06/25 00:06:22;;;;;;;10.60;8.50;;;18.30;99.90;;;;;;4981159;28;20164;-68
2023/06/25 00:08:47;;;;;;;7.90;7.30;;;18.30;99.90;;;;;;4991649;28;20222;-69
2023/06/25 00:11:13;;;;;;;9.00;8.23;;;18.30;99.90;;;;;;4975102;28;20430;-68
2023/06/25 00:13:39;;;;;;;8.20;7.40;;;18.30;99.90;;;;;;4992332;28;20214;-68
2023/06/25 00:16:05;;;;;;;8.03;7.37;;;18.40;99.90;;;;;;4992583;28;20641;-69
2023/06/25 00:18:33;;;;;;;7.63;6.87;;;18.30;99.90;;;;;;4992272;28;20167;-68
2023/06/25 00:20:58;;;;;;;8.20;7.40;;;18.20;99.90;;;;;;4984022;28;20502;-68
2023/06/25 00:23:24;;;;;;;7.67;7.03;;;18.20;99.90;;;;;;4985063;28;20456;-68
2023/06/25 00:25:50;;;;;;;8.17;7.47;;;18.20;99.90;;;;;;4996217;28;20214;-68
2023/06/25 00:28:15;;;;;;;8.70;8.00;;;18.20;99.90;;;;;;4996162;28;20996;-68
2023/06/25 00:30:41;;;;;;;8.03;7.33;;;18.20;99.90;;;;;;4996416;28;20194;-68
2023/06/25 00:33:06;;;;;;;7.83;7.23;;;18.10;99.90;;;;;;4994033;28;20266;-68
2023/06/25 00:35:50;;;;;;;7.37;6.77;;;18.10;99.90;;;;;;4988325;28;20201;-68
2023/06/25 00:38:19;;;;;;;7.17;6.57;;;18.00;99.90;;;;;;4995944;28;20172;-69
2023/06/25 00:40:44;;;;;;;8.10;7.43;;;18.00;99.90;;;;;;4996095;28;20812;-68
2023/06/25 00:43:10;;;;;;;8.00;7.23;;;18.00;99.90;;;;;;4996051;28;20544;-68
2023/06/25 00:45:35;;;;;;;7.43;6.83;;;18.00;99.90;;;;;;4996197;28;20182;-68
2023/06/25 00:48:04;;;;;;;8.10;7.50;;;18.00;99.90;;;;;;4988970;28;20575;-69
2023/06/25 00:50:30;;;;;;;9.73;7.23;;;18.00;99.90;;;;;;4992837;28;20645;-69
2023/06/25 00:52:57;;;;;;;8.43;7.57;;;18.00;99.90;;;;;;4995927;28;20430;-69
2023/06/25 00:55:22;;;;;;;8.27;7.47;;;18.10;99.90;;;;;;4995860;28;20164;-68
2023/06/25 00:57:48;;;;;;;9.40;8.50;;;18.00;99.90;;;;;;4995977;28;20982;-68
2023/06/25 01:00:14;;;;;;;9.80;8.13;;;18.00;99.90;;;;;;4995667;28;20168;-68
2023/06/25 01:02:50;;;;;;;8.97;8.07;;;18.00;99.90;;;;;;4995646;28;20206;-69
2023/06/25 01:05:46;;;;;;;8.97;8.27;;;18.00;99.90;;;;;;4979433;28;20451;-68
2023/06/25 01:08:13;;;;;;;8.87;8.03;;;17.90;99.90;;;;;;4969740;28;20482;-69
2023/06/25 01:10:40;;;;;;;8.33;7.77;;;17.90;99.90;;;;;;4976307;28;20419;-70
2023/06/25 01:13:06;;;;;;;8.77;8.07;;;17.90;99.90;;;;;;4976284;28;20798;-69
2023/06/25 01:15:31;;;;;;;8.83;7.97;;;17.80;99.90;;;;;;4976163;28;20435;-68
2023/06/25 01:17:58;;;;;;;10.03;8.93;;;17.80;99.90;;;;;;4976149;28;20253;-68
2023/06/25 01:20:26;;;;;;;8.47;7.57;;;17.80;99.90;;;;;;4979428;28;20255;-68
2023/06/25 01:22:52;;;;;;;9.30;8.50;;;17.70;99.90;;;;;;4987435;28;20881;-69
2023/06/25 01:25:18;;;;;;;8.80;8.03;;;17.70;99.90;;;;;;4995343;28;20990;-69
2023/06/25 01:27:44;;;;;;;8.07;7.47;;;17.70;99.90;;;;;;4995502;28;20423;-68
2023/06/25 01:30:11;;;;;;;8.43;7.73;;;17.60;99.90;;;;;;4977565;28;20199;-68
2023/06/25 01:32:41;;;;;;;7.97;7.23;;;17.60;99.90;;;;;;4994360;28;20179;-68
2023/06/25 01:35:07;;;;;;;8.30;7.60;;;17.60;99.90;;;;;;4995056;28;20468;-68
2023/06/25 01:37:33;;;;;;;8.47;7.87;;;17.60;99.90;;;;;;4982001;28;20438;-68
2023/06/25 01:39:59;;;;;;;8.10;7.40;;;17.50;99.90;;;;;;4975472;28;20510;-68
2023/06/25 01:42:24;;;;;;;8.43;7.73;;;17.60;99.90;;;;;;4975535;28;20212;-68
2023/06/25 01:44:50;;;;;;;8.90;8.10;;;17.50;99.90;;;;;;4975600;28;20620;-69
2023/06/25 01:47:15;;;;;;;8.03;7.30;;;17.50;99.90;;;;;;4975674;28;20169;-68
2023/06/25 01:49:41;;;;;;;8.77;8.00;;;17.50;99.90;;;;;;4975148;28;20199;-68
2023/06/25 01:52:07;;;;;;;8.13;7.53;;;17.40;99.90;;;;;;4974601;28;20637;-69
2023/06/25 01:54:33;;;;;;;8.77;7.97;;;17.40;99.90;;;;;;4983742;28;20207;-69
2023/06/25 01:56:59;;;;;;;9.70;8.80;;;17.40;99.90;;;;;;4994804;28;20527;-68
2023/06/25 01:59:25;;;;;;;8.53;7.73;;;17.30;99.90;;;;;;4994576;28;20691;-68
2023/06/25 02:01:50;;;;;;;8.30;7.60;;;17.20;99.90;;;;;;4994647;28;20447;-69
2023/06/25 02:04:16;;;;;;;8.90;8.07;;;17.20;99.90;;;;;;4994500;28;20699;-68
2023/06/25 02:06:41;;;;;;;8.70;7.90;;;17.10;99.90;;;;;;4994605;28;20543;-68
2023/06/25 02:09:07;;;;;;;9.23;8.53;;;17.10;99.90;;;;;;4989548;28;20185;-69
2023/06/25 02:11:33;;;;;;;8.30;7.60;;;17.10;99.90;;;;;;4982338;28;20183;-68
2023/06/25 02:13:58;;;;;;;8.50;7.70;;;17.10;99.90;;;;;;4987074;28;20215;-68
2023/06/25 02:16:24;;;;;;;8.97;8.20;;;17.10;99.90;;;;;;4994515;28;20186;-68
2023/06/25 02:18:50;;;;;;;7.43;6.57;;;17.10;99.90;;;;;;4994132;28;20172;-68
2023/06/25 02:21:15;;;;;;;9.60;8.80;;;17.10;99.90;;;;;;4994472;28;20199;-69
2023/06/25 02:23:41;;;;;;;8.07;7.40;;;17.00;99.90;;;;;;4994290;28;20450;-68
2023/06/25 02:26:06;;;;;;;9.73;8.80;;;17.10;99.90;;;;;;4984055;28;20185;-68
2023/06/25 02:28:32;;;;;;;9.07;8.37;;;17.00;99.90;;;;;;4979808;28;20263;-68
2023/06/25 02:30:57;;;;;;;9.40;8.60;;;17.00;99.90;;;;;;4974860;28;20184;-68
2023/06/25 02:33:23;;;;;;;9.03;8.33;;;17.00;99.90;;;;;;4974598;28;20279;-68
2023/06/25 02:35:48;;;;;;;8.93;8.23;;;17.00;99.90;;;;;;4974731;28;20167;-68
2023/06/25 02:38:14;;;;;;;9.10;8.40;;;17.00;99.90;;;;;;4974525;28;20188;-68
2023/06/25 02:40:39;;;;;;;8.77;7.90;;;16.90;99.90;;;;;;4974563;28;20176;-68
2023/06/25 02:43:05;;;;;;;12.90;9.83;;;16.90;99.90;;;;;;4973882;28;20203;-69
2023/06/25 02:45:30;;;;;;;9.57;8.67;;;16.90;99.90;;;;;;4985876;28;20605;-68
2023/06/25 02:47:56;;;;;;;9.53;8.80;;;16.90;99.90;;;;;;4993840;28;20221;-68
2023/06/25 02:50:21;;;;;;;9.37;8.67;;;16.80;99.90;;;;;;4993510;28;20249;-69
2023/06/25 02:52:47;;;;;;;8.77;8.00;;;16.90;99.90;;;;;;4993997;28;20182;-68
2023/06/25 02:55:12;;;;;;;9.00;8.20;;;16.80;99.90;;;;;;4993620;28;20195;-68
2023/06/25 02:57:38;;;;;;;10.00;9.10;;;16.70;99.90;;;;;;4993858;28;20714;-68
2023/06/25 03:00:07;;;;;;;9.17;8.47;;;16.70;99.90;;;;;;4985754;28;20271;-68
2023/06/25 03:02:32;;;;;;;8.37;7.67;;;16.60;99.90;;;;;;4990759;28;20196;-69
2023/06/25 03:04:58;;;;;;;9.97;9.07;;;16.60;99.90;;;;;;4993729;28;20434;-68
2023/06/25 03:07:23;;;;;;;10.33;8.63;;;16.60;99.90;;;;;;4993644;28;20176;-69
2023/06/25 03:09:49;;;;;;;8.47;7.77;;;16.60;99.90;;;;;;4993259;28;20176;-68
2023/06/25 03:12:14;;;;;;;9.20;8.50;;;16.50;99.90;;;;;;4993458;28;20183;-68
2023/06/25 03:14:41;;;;;;;8.80;8.10;;;16.50;99.90;;;;;;4991717;28;20207;-69
2023/06/25 03:17:06;;;;;;;9.80;8.73;;;16.50;99.90;;;;;;4976543;28;20188;-69
2023/06/25 03:19:32;;;;;;;8.87;8.10;;;16.50;99.90;;;;;;4982025;28;20962;-68
2023/06/25 03:21:58;;;;;;;9.77;8.93;;;16.50;99.90;;;;;;4985858;28;20207;-68
2023/06/25 03:24:23;;;;;;;9.53;8.83;;;16.50;99.90;;;;;;4993282;28;20561;-68
2023/06/25 03:26:49;;;;;;;9.07;8.27;;;16.50;99.90;;;;;;4993236;28;20214;-68
2023/06/25 03:29:14;;;;;;;11.20;8.70;;;16.50;99.90;;;;;;4992875;28;20199;-68
2023/06/25 03:31:40;;;;;;;9.27;8.50;;;16.50;99.90;;;;;;4983567;28;20185;-68
2023/06/25 03:34:05;;;;;;;9.20;8.47;;;16.50;99.90;;;;;;4982443;28;20235;-68
2023/06/25 03:36:31;;;;;;;8.83;8.13;;;16.50;99.90;;;;;;4990271;28;20222;-68
2023/06/25 03:38:57;;;;;;;9.60;8.80;;;16.50;99.90;;;;;;4992755;28;20172;-68
2023/06/25 03:41:23;;;;;;;9.80;8.70;;;16.40;99.90;;;;;;4992909;28;20810;-68
2023/06/25 03:43:48;;;;;;;9.80;8.93;;;16.50;99.90;;;;;;4992945;28;20664;-68
2023/06/25 03:46:14;;;;;;;9.10;8.30;;;16.50;99.90;;;;;;4992811;28;20465;-69
2023/06/25 03:48:43;;;;;;;9.20;8.40;;;16.50;99.90;;;;;;4987290;28;20257;-68
2023/06/25 03:51:09;;;;;;;9.10;8.40;;;16.50;99.90;;;;;;4980539;28;20785;-68
2023/06/25 03:53:35;;;;;;;9.37;8.57;;;16.50;99.90;;;;;;4980978;28;20590;-69
2023/06/25 03:56:00;;;;;;;10.20;9.23;;;16.50;99.90;;;;;;4972947;28;20510;-68
2023/06/25 03:58:26;;;;;;;9.37;8.50;;;16.60;99.90;;;;;;4973099;28;20447;-68
2023/06/25 04:00:52;;;;;;;8.80;8.10;;;16.60;99.90;;;;;;4973314;28;20208;-68
2023/06/25 04:03:17;;;;;;;16.60;9.80;;;16.70;99.90;;;;;;4973242;28;20307;-68
2023/06/25 04:05:44;;;;;;;11.37;9.97;;;16.80;99.90;;;;;;4975206;28;20183;-68
2023/06/25 04:08:10;;;;;;;9.33;8.33;;;16.80;99.90;;;;;;4986615;28;20176;-68
2023/06/25 04:10:35;;;;;;;8.80;8.00;;;17.00;99.90;;;;;;4992358;28;20465;-68
2023/06/25 04:13:01;;;;;;;9.10;8.30;;;17.00;99.90;;;;;;4992242;28;20179;-68
2023/06/25 04:15:26;;;;;;;9.83;8.93;;;17.10;99.90;;;;;;4992300;28;20572;-68
2023/06/25 04:17:52;;;;;;;8.50;7.70;;;17.20;99.90;;;;;;4974867;28;20199;-69
2023/06/25 04:20:18;;;;;;;9.87;8.87;;;17.30;99.90;;;;;;4986691;28;20190;-68
2023/06/25 04:22:43;;;;;;;9.83;8.87;;;17.40;99.90;;;;;;4980181;28;20238;-68
2023/06/25 04:25:09;;;;;;;10.00;9.00;;;17.50;99.90;;;;;;4986208;28;20454;-68
2023/06/25 04:27:34;;;;;;;8.77;8.07;;;17.60;99.90;;;;;;4992401;28;20532;-68
2023/06/25 04:30:00;;;;;;;9.20;8.50;;;17.60;99.90;;;;;;4992067;28;20171;-68
2023/06/25 04:32:25;;;;;;;9.77;9.00;;;17.70;99.90;;;;;;4987019;28;20283;-68
2023/06/25 04:34:51;;;;;;;9.03;8.33;;;17.80;99.90;;;;;;4983531;28;20196;-68
2023/06/25 04:37:16;;;;;;;9.23;8.53;;;18.00;99.90;;;;;;4992142;28;20179;-69
2023/06/25 04:39:42;;;;;;;8.97;8.27;;;18.10;99.90;;;;;;4988536;28;20515;-68
2023/06/25 04:42:07;;;;;;;9.03;8.13;;;18.20;99.90;;;;;;4983792;28;20203;-68
2023/06/25 04:44:33;;;;;;;8.50;7.80;;;18.30;99.90;;;;;;4992136;28;20198;-68
2023/06/25 04:46:58;;;;;;;9.90;9.00;;;18.50;99.90;;;;;;4981775;28;20178;-68
2023/06/25 04:49:24;;;;;;;8.73;8.10;;;18.60;99.90;;;;;;4980270;28;20184;-69
2023/06/25 04:51:50;;;;;;;8.63;7.83;;;18.70;99.90;;;;;;4991453;28;20652;-69
2023/06/25 04:54:15;;;;;;;8.10;7.40;;;18.90;99.90;;;;;;4991949;28;20199;-68
2023/06/25 04:56:41;;;;;;;8.97;8.17;;;19.00;99.90;;;;;;4991928;28;20180;-69
2023/06/25 04:59:06;;;;;;;8.57;7.80;;;19.10;99.90;;;;;;4991765;28;20184;-69
2023/06/25 05:01:32;;;;;;;9.10;8.00;;;19.20;99.90;;;;;;4991862;28;20817;-69
2023/06/25 05:03:58;;;;;;;8.90;7.60;;;19.20;99.90;;;;;;4975571;28;20226;-68
2023/06/25 05:06:24;;;;;;;8.13;7.40;;;19.30;99.90;;;;;;4976783;28;20180;-69
2023/06/25 05:08:49;;;;;;;9.23;8.33;;;19.40;99.90;;;;;;4975726;28;20168;-68
2023/06/25 05:11:15;;;;;;;9.03;8.13;;;19.40;99.90;;;;;;4975981;28;20179;-68
2023/06/25 05:13:41;;;;;;;7.50;6.80;;;19.50;99.90;;;;;;4993247;23;21002;-68
2023/06/25 05:16:06;;;;;;;8.57;7.87;;;19.60;99.90;;;;;;4995508;28;20175;-68
2023/06/25 05:18:32;;;;;;;7.60;6.93;;;19.70;99.90;;;;;;4995123;28;20172;-68
2023/06/25 05:20:57;;;;;;;8.20;7.47;;;19.80;99.90;;;;;;4990131;28;20243;-68
2023/06/25 05:23:24;;;;;;;8.00;7.30;;;19.90;99.90;;;;;;4983703;28;20287;-67
2023/06/25 05:25:50;;;;;;;7.57;6.97;;;19.90;99.90;;;;;;4995035;28;20226;-68
2023/06/25 05:28:15;;;;;;;9.33;8.50;;;20.20;99.90;;;;;;4977641;28;20462;-68
2023/06/25 05:30:41;;;;;;;7.53;6.93;;;20.50;99.90;;;;;;4995429;28;20176;-68
2023/06/25 05:33:06;;;;;;;7.80;7.20;;;20.70;99.90;;;;;;4995275;28;20254;-68
2023/06/25 05:35:32;;;;;;;8.60;7.90;;;20.90;99.90;;;;;;4995253;28;20196;-68
2023/06/25 05:37:57;;;;;;;11.10;7.90;;;20.80;99.90;;;;;;4993661;28;20186;-68
2023/06/25 05:40:25;;;;;;;7.83;7.13;;;20.70;99.90;;;;;;4994753;28;20187;-68
2023/06/25 05:42:50;;;;;;;9.23;8.43;;;20.50;99.90;;;;;;4994911;28;20200;-68
2023/06/25 05:45:16;;;;;;;7.73;7.03;;;20.70;99.90;;;;;;4994925;28;20445;-68
2023/06/25 05:47:41;;;;;;;8.10;7.50;;;20.80;99.90;;;;;;4994932;28;20172;-67
2023/06/25 05:50:07;;;;;;;7.77;7.17;;;20.90;99.90;;;;;;4994705;28;20258;-68
2023/06/25 05:52:33;;;;;;;7.97;7.23;;;21.00;99.90;;;;;;4992901;28;20580;-68
2023/06/25 05:54:58;;;;;;;8.23;7.53;;;21.40;99.90;;;;;;4994744;28;20211;-68
2023/06/25 05:57:25;;;;;;;8.00;7.23;;;21.60;99.90;;;;;;4994696;28;20172;-68
2023/06/25 05:59:50;;;;;;;8.10;7.40;;;21.70;99.90;;;;;;4994443;28;20242;-68
2023/06/25 06:02:16;;;;;;;7.33;6.73;;;21.90;99.90;;;;;;4994485;28;20458;-68
2023/06/25 06:04:41;;;;;;;6.90;6.40;;;22.10;99.90;;;;;;4994653;28;20661;-68
2023/06/25 06:07:07;;;;;;;6.90;6.20;;;22.10;99.90;;;;;;4994609;28;20168;-68
2023/06/25 06:09:32;;;;;;;7.90;7.10;;;22.10;99.90;;;;;;4993314;28;20183;-69
2023/06/25 06:11:58;;;;;;;8.17;7.47;;;22.10;99.90;;;;;;4994305;28;20318;-68
2023/06/25 06:14:25;;;;;;;8.27;7.57;;;22.40;99.90;;;;;;4994385;28;20269;-69
2023/06/25 06:16:50;;;;;;;8.20;6.97;;;22.50;99.90;;;;;;4994197;28;20234;-68
2023/06/25 06:19:16;;;;;;;7.00;6.33;;;22.40;99.90;;;;;;4991872;28;20439;-68
2023/06/25 06:21:42;;;;;;;8.23;7.53;;;22.70;99.90;;;;;;4994139;28;20574;-68
2023/06/25 06:24:07;;;;;;;10.90;7.47;;;23.10;99.90;;;;;;4993214;28;20199;-69
2023/06/25 06:26:35;;;;;;;7.90;7.10;;;23.20;97.70;;;;;;4994061;28;20187;-68
2023/06/25 06:29:03;;;;;;;7.00;6.50;;;23.50;95.90;;;;;;4994065;28;20554;-68
2023/06/25 06:31:32;;;;;;;7.20;6.60;;;23.70;94.80;;;;;;4994156;28;20419;-68
2023/06/25 06:33:58;;;;;;;7.50;6.80;;;23.80;93.90;;;;;;4988985;28;20489;-69
2023/06/25 06:36:23;;;;;;;7.70;7.10;;;24.00;93.50;;;;;;4993482;28;20528;-69
2023/06/25 06:38:49;;;;;;;8.53;7.93;;;24.20;92.50;;;;;;4993657;28;20190;-69
2023/06/25 06:41:14;;;;;;;7.90;7.30;;;24.30;91.40;;;;;;4993783;28;20176;-69
2023/06/25 06:43:40;;;;;;;7.57;6.80;;;24.30;90.50;;;;;;4993852;28;20553;-68
2023/06/25 06:46:05;;;;;;;8.13;7.43;;;24.20;90.40;;;;;;4993933;28;20199;-68
2023/06/25 06:48:31;;;;;;;7.23;6.53;;;24.20;90.60;;;;;;4993557;28;20180;-69
2023/06/25 06:50:56;;;;;;;7.33;6.63;;;24.40;90.90;;;;;;4989233;28;20180;-68
2023/06/25 06:53:21;;;;;;;7.13;6.63;;;24.60;89.70;;;;;;4989487;28;20266;-69
2023/06/25 06:55:47;;;;;;;6.93;6.40;;;24.70;87.60;;;;;;4993724;28;20210;-68
2023/06/25 06:58:13;;;;;;;7.90;7.30;;;24.80;86.60;;;;;;4993615;28;20637;-68
2023/06/25 07:00:38;;;;;;;7.30;6.70;;;25.00;84.70;;;;;;4993662;28;20180;-69
2023/06/25 07:03:04;;;;;;;7.27;6.67;;;25.00;83.20;;;;;;4993605;28;20218;-68
2023/06/25 07:05:29;;;;;;;6.30;5.80;;;25.20;80.80;;;;;;4993493;28;20195;-69
2023/06/25 07:07:55;;;;;;;7.63;7.03;;;25.30;81.20;;;;;;4984626;28;20183;-68
2023/06/25 07:10:20;;;;;;;6.50;6.00;;;25.60;80.30;;;;;;4993046;28;20593;-68
2023/06/25 07:12:46;;;;;;;7.47;6.77;;;25.80;79.40;;;;;;4993560;28;20644;-68
2023/06/25 07:15:12;;;;;;;7.60;7.00;;;26.10;78.10;;;;;;4993048;28;20680;-68
2023/06/25 07:17:37;;;;;;;7.33;6.73;;;26.30;76.90;;;;;;4993327;28;20175;-68
2023/06/25 07:20:03;;;;;;;7.40;6.70;;;26.60;75.00;;;;;;4992915;28;20721;-68
2023/06/25 07:22:28;;;;;;;7.77;7.03;;;26.50;74.00;;;;;;4991256;28;20208;-68
2023/06/25 07:24:54;;;;;;;7.93;7.23;;;26.80;73.30;;;;;;4985098;28;20201;-68
2023/06/25 07:27:19;;;;;;;8.07;7.47;;;26.50;72.80;;;;;;4993133;28;20656;-68
2023/06/25 07:29:45;;;;;;;7.63;6.90;;;26.70;71.40;;;;;;4992058;28;20175;-68
2023/06/25 07:32:10;;;;;;;6.53;6.00;;;26.90;70.60;;;;;;4993005;28;20711;-69
2023/06/25 07:34:36;;;;;;;7.37;6.77;;;27.00;68.60;;;;;;4992880;28;20199;-69
2023/06/25 07:37:02;;;;;;;7.27;6.60;;;27.30;67.70;;;;;;4987115;28;20268;-69
2023/06/25 07:39:32;;;;;;;7.67;7.07;;;27.40;65.50;;;;;;4988150;28;20687;-69
2023/06/25 07:41:58;;;;;;;7.93;7.13;;;27.40;63.40;;;;;;4985447;28;20203;-69
2023/06/25 07:44:23;;;;;;;7.87;7.27;;;27.40;61.80;;;;;;4992753;28;20435;-69
2023/06/25 07:46:49;;;;;;;9.13;7.43;;;27.40;62.10;;;;;;4992804;28;20203;-71
2023/06/25 07:49:15;;;;;;;8.37;7.63;;;27.60;60.90;;;;;;4992450;28;20200;-69
2023/06/25 07:51:44;;;;;;;8.00;7.27;;;27.60;59.50;;;;;;4992773;28;20213;-69
2023/06/25 07:54:11;;;;;;;7.90;7.20;;;27.70;58.90;;;;;;4990632;28;20454;-68
2023/06/25 07:56:36;;;;;;;7.40;6.80;;;28.00;59.50;;;;;;4983705;28;20438;-69
2023/06/25 07:59:02;;;;;;;7.60;6.90;;;28.10;58.90;;;;;;4992289;28;20906;-69
2023/06/25 08:01:29;;;;;;;7.40;6.80;;;28.40;57.90;;;;;;4992644;28;20199;-69
2023/06/25 08:03:56;;;;;;;7.47;6.87;;;28.50;56.10;;;;;;4992635;28;20189;-68
2023/06/25 08:06:21;;;;;;;7.43;6.80;;;28.50;56.80;;;;;;4992483;28;20419;-69
2023/06/25 08:08:47;;;;;;;8.30;7.60;;;28.50;56.40;;;;;;4992215;28;20422;-69
2023/06/25 08:11:13;;;;;;;7.23;6.73;;;28.50;56.80;;;;;;4983497;28;20180;-69
2023/06/25 08:13:39;;;;;;;7.27;6.67;;;28.60;55.50;;;;;;4992249;28;20203;-69
2023/06/25 08:16:04;;;;;;;7.17;6.57;;;28.50;56.40;;;;;;4992655;28;20234;-69
2023/06/25 08:18:30;;;;;;;8.20;7.47;;;28.50;55.90;;;;;;4992099;28;20427;-69
2023/06/25 08:20:55;;;;;;;8.63;7.57;;;28.40;56.00;;;;;;4992512;28;20664;-69
2023/06/25 08:23:21;;;;;;;8.03;7.40;;;28.50;56.00;;;;;;4992282;28;20250;-69
2023/06/25 08:25:46;;;;;;;7.13;6.63;;;28.70;55.70;;;;;;4991130;28;20176;-69
2023/06/25 08:28:12;;;;;;;8.07;7.27;;;29.10;55.00;;;;;;4982742;28;20621;-68
2023/06/25 08:30:37;;;;;;;8.87;8.17;;;29.40;53.90;;;;;;4978805;28;20187;-69
2023/06/25 08:33:03;;;;;;;7.50;6.90;;;29.50;51.90;;;;;;4992343;28;20661;-69
2023/06/25 08:35:28;;;;;;;8.07;7.37;;;29.20;51.70;;;;;;4992232;28;20199;-69
2023/06/25 08:37:54;;;;;;;8.13;7.43;;;29.10;51.80;;;;;;4992338;28;20191;-69
2023/06/25 08:40:21;;;;;;;14.10;8.30;;;29.20;49.90;;;;;;4992610;28;20549;-69
2023/06/25 08:42:47;;;;;;;7.97;7.37;;;29.10;50.10;;;;;;4994046;28;20286;-68
2023/06/25 08:45:12;;;;;;;7.43;6.83;;;28.90;50.80;;;;;;4995914;28;20534;-69
2023/06/25 08:47:39;;;;;;;8.23;7.53;;;29.20;49.90;;;;;;4996013;28;20179;-69
2023/06/25 08:50:09;;;;;;;9.03;8.20;;;29.30;50.00;;;;;;4995645;28;20175;-69
2023/06/25 08:52:35;;;;;;;8.73;8.03;;;29.30;50.60;;;;;;4996051;28;20441;-69
2023/06/25 08:55:01;;;;;;;9.17;8.27;;;29.80;50.00;;;;;;4995772;28;20450;-69
2023/06/25 08:57:26;;;;;;;7.93;7.23;;;30.20;48.90;;;;;;4995734;28;20484;-69
2023/06/25 08:59:52;;;;;;;9.50;8.70;;;30.40;47.90;;;;;;4993604;28;20554;-69
2023/06/25 09:02:18;;;;;;;8.40;7.80;;;30.50;48.20;;;;;;4995553;28;20191;-69
2023/06/25 09:04:46;;;;;;;8.13;7.53;;;30.70;47.90;;;;;;4995551;28;20203;-69
2023/06/25 09:07:15;;;;;;;8.67;7.97;;;30.90;46.70;;;;;;4995714;28;20215;-69
2023/06/25 09:09:42;;;;;;;9.30;8.60;;;30.90;45.70;;;;;;4995346;28;20447;-69
2023/06/25 09:12:09;;;;;;;8.80;8.10;;;30.40;45.70;;;;;;4995547;28;20427;-69
2023/06/25 09:14:35;;;;;;;9.10;8.20;;;30.10;46.30;;;;;;4995350;28;20532;-69
2023/06/25 09:17:02;;;;;;;8.63;7.93;;;30.10;45.90;;;;;;4993485;28;20446;-69
2023/06/25 09:19:27;;;;;;;7.57;7.07;;;30.50;45.90;;;;;;4994969;28;20915;-69
2023/06/25 09:21:53;;;;;;;7.90;7.40;;;30.50;45.10;;;;;;4995566;28;20465;-69
2023/06/25 09:24:20;;;;;;;7.70;7.10;;;30.40;44.50;;;;;;4995291;28;20202;-69
2023/06/25 09:26:50;;;;;;;10.00;6.80;;;30.60;43.70;;;;;;4995288;28;20254;-69
2023/06/25 09:29:17;;;;;;;9.93;7.20;;;30.80;43.70;;;;;;4994998;28;20468;-69
2023/06/25 09:31:44;;;;;;;7.43;6.83;;;30.20;44.30;;;;;;4995310;28;20430;-69
2023/06/25 09:34:10;;;;;;;8.60;7.90;;;30.30;43.50;;;;;;4988180;28;20832;-69
2023/06/25 09:36:36;;;;;;;8.47;7.60;;;30.60;43.40;;;;;;4992539;28;20436;-69
2023/06/25 09:39:03;;;;;;;6.53;5.93;;;31.10;43.00;;;;;;4995039;28;20530;-69
2023/06/25 09:41:29;;;;;;;6.60;6.10;;;31.20;39.80;;;;;;4994975;28;20182;-68
2023/06/25 09:43:56;;;;;;;8.30;7.60;;;31.10;40.10;;;;;;4995026;28;20443;-69
2023/06/25 09:46:22;;;;;;;7.97;7.17;;;31.20;40.40;;;;;;4994836;28;20423;-69
2023/06/25 09:48:51;;;;;;;7.23;6.60;;;31.20;39.50;;;;;;4992723;28;20467;-69
2023/06/25 09:51:18;;;;;;;8.07;7.30;;;31.40;39.20;;;;;;4994776;28;20506;-69
2023/06/25 09:53:46;;;;;;;7.63;7.03;;;32.00;39.30;;;;;;4994128;28;20868;-69
2023/06/25 09:56:12;;;;;;;8.87;8.10;;;32.30;38.70;;;;;;4994863;28;20422;-67
2023/06/25 09:58:38;;;;;;;8.50;7.80;;;32.80;38.00;;;;;;4994673;28;20920;-67
2023/06/25 10:01:04;;;;;;;8.20;7.60;;;33.20;37.70;;;;;;4994671;28;20569;-68
2023/06/25 10:03:30;;;;;;;6.60;6.10;;;33.00;34.90;;;;;;4994641;28;20241;-67
2023/06/25 10:05:55;;;;;;;6.87;6.37;;;32.40;34.80;;;;;;4992787;28;20190;-67
2023/06/25 10:08:21;;;;;;;7.77;7.07;;;32.60;35.50;;;;;;4994268;28;20418;-67
2023/06/25 10:11:00;;;;;;;7.00;6.50;;;33.40;35.00;;;;;;4994464;28;20175;-68
2023/06/25 10:13:26;;;;;;;7.13;6.37;;;33.30;33.60;;;;;;4994259;28;20172;-67
2023/06/25 10:16:00;;;;;;;8.00;7.40;;;33.30;33.70;;;;;;4994624;28;20520;-68
2023/06/25 10:18:26;;;;;;;6.70;6.20;;;33.60;33.80;;;;;;4994076;28;20430;-67
2023/06/25 10:20:58;;;;;;;8.13;7.50;;;34.20;33.70;;;;;;4994319;28;20807;-67
2023/06/25 10:23:24;;;;;;;7.77;7.17;;;33.90;32.80;;;;;;4984853;28;20212;-67
2023/06/25 10:25:56;;;;;;;8.47;7.77;;;33.60;33.60;;;;;;4985226;28;20452;-68
2023/06/25 10:28:34;;;;;;;8.20;7.60;;;33.90;32.60;;;;;;4993788;28;20866;-67
2023/06/25 10:31:12;;;;;;;8.00;7.40;;;33.90;31.50;;;;;;4994103;28;20421;-67
2023/06/25 10:33:38;;;;;;;8.43;7.73;;;33.90;31.30;;;;;;4994073;28;20446;-67
2023/06/25 10:36:06;;;;;;;8.30;7.70;;;33.40;32.20;;;;;;4994076;28;20422;-66
2023/06/25 10:38:32;;;;;;;8.40;7.80;;;34.70;32.30;;;;;;4991687;28;20183;-67
2023/06/25 10:40:57;;;;;;;9.40;7.57;;;35.60;31.40;;;;;;4986881;28;21141;-68
2023/06/25 10:43:23;;;;;;;8.90;8.20;;;35.60;30.10;;;;;;4989375;28;20594;-67
2023/06/25 10:45:56;;;;;;;8.30;7.50;;;35.80;29.40;;;;;;4993856;28;20195;-68
2023/06/25 10:48:23;;;;;;;8.90;8.30;;;35.50;29.50;;;;;;4993629;28;20234;-67
2023/06/25 10:50:51;;;;;;;9.10;8.40;;;35.60;29.70;;;;;;4993830;28;20453;-67
2023/06/25 10:53:19;;;;;;;8.70;8.10;;;36.70;28.60;;;;;;4993611;28;20436;-67
2023/06/25 10:55:50;;;;;;;9.13;8.53;;;35.90;29.10;;;;;;4990885;28;20479;-68
2023/06/25 10:58:20;;;;;;;8.90;8.27;;;35.40;29.10;;;;;;4985255;28;20923;-68
2023/06/25 11:00:55;;;;;;;8.20;7.50;;;36.60;28.80;;;;;;4993577;28;20441;-68
2023/06/25 11:03:21;;;;;;;9.07;8.37;;;38.10;28.80;;;;;;4992984;28;20462;-69
2023/06/25 11:05:47;;;;;;;8.87;8.17;;;39.10;28.70;;;;;;4992674;28;20472;-68
2023/06/25 11:08:13;;;;;;;9.33;8.53;;;39.70;28.30;;;;;;4993156;28;20431;-68
2023/06/25 11:10:40;;;;;;;10.33;9.53;;;39.10;28.50;;;;;;4993270;28;20171;-68
2023/06/25 11:13:09;;;;;;;9.27;8.57;;;39.00;28.10;;;;;;4986540;28;20192;-68
2023/06/25 11:15:35;;;;;;;9.90;9.10;;;39.00;27.70;;;;;;5043288;23;20520;-70
2023/06/25 11:18:03;;;;;;;10.63;9.83;;;38.00;27.80;;;;;;4971676;28;20983;-70
2023/06/25 11:20:29;;;;;;;9.10;8.50;;;38.50;27.60;;;;;;5012624;28;20170;-70
2023/06/25 11:23:01;;;;;;;8.60;8.00;;;38.80;27.40;;;;;;5012889;28;20457;-70
2023/06/25 11:25:28;;;;;;;9.40;8.60;;;40.10;26.80;;;;;;5012893;28;20453;-70
2023/06/25 11:28:11;;;;;;;9.03;8.43;;;40.10;26.20;;;;;;5002453;28;20429;-70
2023/06/25 11:30:37;;;;;;;8.30;7.77;;;40.10;26.40;;;;;;5004692;28;20777;-70
2023/06/25 11:33:07;;;;;;;10.30;9.50;;;40.30;26.10;;;;;;5012839;28;20421;-70
2023/06/25 11:35:33;;;;;;;9.47;8.87;;;40.00;25.30;;;;;;5012603;28;20946;-70
2023/06/25 11:37:58;;;;;;;9.20;8.60;;;39.80;25.80;;;;;;5012638;28;20430;-69
2023/06/25 11:40:26;;;;;;;9.53;8.90;;;40.40;25.30;;;;;;5012212;28;20199;-70
2023/06/25 11:42:52;;;;;;;10.40;9.77;;;40.40;24.90;;;;;;5007350;28;20272;-70
2023/06/25 11:45:19;;;;;;;9.57;8.97;;;40.90;25.40;;;;;;5004034;28;20446;-70
2023/06/25 11:47:53;;;;;;;9.60;8.90;;;41.40;25.00;;;;;;5012327;28;20429;-70
2023/06/25 11:50:28;;;;;;;9.10;8.50;;;41.90;24.90;;;;;;5012121;28;20423;-70
2023/06/25 11:52:55;;;;;;;9.43;8.50;;;41.20;24.40;;;;;;5012250;28;20475;-70
2023/06/25 11:55:21;;;;;;;9.73;9.10;;;40.80;24.20;;;;;;5012057;28;20970;-70
2023/06/25 11:57:47;;;;;;;11.00;10.07;;;40.50;23.70;;;;;;5012155;28;20430;-69
2023/06/25 12:00:14;;;;;;;9.47;8.80;;;41.10;23.70;;;;;;5000850;28;20447;-70
2023/06/25 12:02:40;;;;;;;8.43;7.83;;;42.60;23.40;;;;;;5004725;28;20469;-69
2023/06/25 12:05:06;;;;;;;9.83;9.13;;;42.90;23.40;;;;;;4999657;28;20989;-69
2023/06/25 12:07:32;;;;;;;8.77;8.13;;;42.50;23.10;;;;;;5008740;28;20182;-69
2023/06/25 12:09:57;;;;;;;8.07;7.57;;;42.60;23.00;;;;;;5011653;28;20418;-69
2023/06/25 12:12:23;;;;;;;9.53;8.90;;;41.50;22.50;;;;;;5011958;28;20194;-69
2023/06/25 12:14:48;;;;;;;9.87;9.17;;;41.30;23.20;;;;;;5008077;28;20215;-69
2023/06/25 12:17:15;;;;;;;11.33;10.57;;;41.90;23.20;;;;;;5002989;28;20652;-69
2023/06/25 12:19:41;;;;;;;8.93;8.33;;;42.70;22.50;;;;;;5003385;28;20186;-69
2023/06/25 12:22:07;;;;;;;8.80;8.27;;;42.80;22.80;;;;;;5011845;28;20472;-69
2023/06/25 12:24:32;;;;;;;9.67;8.90;;;41.50;22.30;;;;;;5011813;28;20441;-69
2023/06/25 12:26:58;;;;;;;9.03;8.43;;;41.70;22.30;;;;;;5011855;28;20178;-69
2023/06/25 12:29:23;;;;;;;8.83;8.00;;;39.80;22.40;;;;;;5011570;28;20175;-69
2023/06/25 12:31:49;;;;;;;8.80;8.20;;;39.00;23.30;;;;;;5005526;28;20181;-69
2023/06/25 12:34:14;;;;;;;9.20;8.50;;;40.10;22.80;;;;;;5000028;28;20226;-69
2023/06/25 12:36:40;;;;;;;9.30;8.60;;;39.70;22.60;;;;;;4992073;28;20259;-69
2023/06/25 12:39:05;;;;;;;9.20;8.60;;;40.50;22.50;;;;;;4991764;28;20186;-69
2023/06/25 12:41:31;;;;;;;9.83;8.73;;;40.30;22.10;;;;;;4992247;28;20613;-69